Classifiche di sempre
Migliori tempi personali validi di atleta tra tutti gli eventi e le stagioni. Ogni atleta compare una sola volta per divisione.
Cerca per nome e apri la pagina in cui è classificato questo record di divisione.
177,852 atleti in classifica
| Pos. | Pos. AG | Atleta | Nazionalità | Categoria età | TempoMiglior tempo | Distacco |
|---|---|---|---|---|---|---|
| 152251 | #12176 | Eddy ChengNZL · M 45-49 · AG #12176 | NZL | M 45-49 | 1:50:39 | +60:01 |
| 152252 | #40618 | 言彰 陳HKG · M 30-34 · AG #40618 | HKG | M 30-34 | 1:50:39 | +60:01 |
| 152253 | #21951 | Mike StephensUSA · M 40-44 · AG #21951 | USA | M 40-44 | 1:50:39 | +60:01 |
| 152254 | #33600 | William DuongUSA · M 35-39 · AG #33600 | USA | M 35-39 | 1:50:39 | +60:01 |
| 152255 | #6277 | Brian DennehyRSA · M 50-54 · AG #6277 | RSA | M 50-54 | 1:50:39 | +60:01 |
| 152256 | #33601 | François LuxereauFRA · M 35-39 · AG #33601 | FRA | M 35-39 | 1:50:39 | +60:01 |
| 152257 | #40615 | Haroon TariqGBR · M 30-34 · AG #40615 | GBR | M 30-34 | 1:50:39 | +60:01 |
| 152258 | #2645 | Raymond Claudius WilsonGBR · M 55-59 · AG #2645 | GBR | M 55-59 | 1:50:39 | +60:01 |
| 152259 | #32632 | Pankaj BansalIND · M 25-29 · AG #32632 | IND | M 25-29 | 1:50:39 | +60:01 |
| 152260 | #6278 | David BaumannUSA · M 50-54 · AG #6278 | USA | M 50-54 | 1:50:39 | +60:01 |
| 152261 | #32633 | Thomas GUESTGBR · M 25-29 · AG #32633 | GBR | M 25-29 | 1:50:39 | +60:01 |
| 152262 | #21955 | Claudio De ChiricoITA · M 40-44 · AG #21955 | ITA | M 40-44 | 1:50:39 | +60:01 |
| 152263 | #12177 | David RoelofsNED · M 45-49 · AG #12177 | NED | M 45-49 | 1:50:39 | +60:01 |
| 152264 | #21952 | Sean HegartyAUS · M 40-44 · AG #21952 | AUS | M 40-44 | 1:50:39 | +60:01 |
| 152265 | #40616 | Javier Palacio LópezESP · M 30-34 · AG #40616 | ESP | M 30-34 | 1:50:39 | +60:01 |
| 152266 | #2646 | Capt Cheri JacobIND · M 55-59 · AG #2646 | IND | M 55-59 | 1:50:39 | +60:01 |
| 152267 | #21956 | Nabil HadjebFRA · M 40-44 · AG #21956 | FRA | M 40-44 | 1:50:39 | +60:01 |
| 152268 | #33602 | Muhammad Fadhil Mohd RezalSIN · M 35-39 · AG #33602 | SIN | M 35-39 | 1:50:39 | +60:01 |
| 152269 | #40617 | Malte SchepersGER · M 30-34 · AG #40617 | GER | M 30-34 | 1:50:39 | +60:01 |
| 152270 | #33603 | Rodrigo Pérez GonzálezMEX · M 35-39 · AG #33603 | MEX | M 35-39 | 1:50:39 | +60:01 |
| 152271 | #21957 | Maxx TantikulTHA · M 40-44 · AG #21957 | THA | M 40-44 | 1:50:39 | +60:01 |
| 152272 | #40619 | JASON CHINMAS · M 30-34 · AG #40619 | MAS | M 30-34 | 1:50:39 | +60:01 |
| 152273 | #33604 | Dustin RogersUSA · M 35-39 · AG #33604 | USA | M 35-39 | 1:50:39 | +60:01 |
| 152274 | #21954 | Dejan PetrovicSRB · M 40-44 · AG #21954 | SRB | M 40-44 | 1:50:39 | +60:01 |
| 152275 | #33605 | Jeroen Van De WorpNED · M 35-39 · AG #33605 | NED | M 35-39 | 1:50:40 | +60:02 |
Pagina 6,091 di 7,115